Seascale, United Kingdom
Current Conditions -  °F | °C
As of 3:20 PM on Monday 22 Dec 2014 (Local Time) from EGNH Reporting Station
Scattered Clouds Scattered Clouds  
Wind Chill: 52°   Ceiling: Unl
Heat Index: 52°   Visibility: 4mi
Dew Point: 48°   Wind: 29mph
Humidity: 88%   Direction: 240°WSW
Pressure: 29.8"   Gusts: NA
Location:  54.4°N, 3.48°W
Report Text: EGNH 221520Z 24025KT 7000 FEW010 SCT025 11/09 Q1009
Loading
Personal Weather Stations






























Interactive Weather Map New forecast layout! Learn more

10-Day Weather Forecast

Advertisements
Track Severe Weather on mobile